Time;durP1;ratioP1;P1;durP2;ratioP2;P2;SDS_P1;SDS_P2;PMS_P1;PMS_P2;Temp;Humidity;BMP_temperature;BMP_pressure;BME280_temperature;BME280_humidity;BME280_pressure;Samples;Min_cycle;Max_cycle;Signal;HPM_P1;HPM_P2
2022/12/30 00:01:16;;;;;;;18.92;2.38;;;8.30;99.90;;;;;;5072426;28;20393;-81
2022/12/30 00:03:42;;;;;;;12.50;1.92;;;8.30;99.90;;;;;;5069784;28;20096;-81
2022/12/30 00:06:14;;;;;;;12.02;1.67;;;8.20;99.90;;;;;;5069242;28;20052;-80
2022/12/30 00:08:47;;;;;;;13.70;1.65;;;8.30;99.90;;;;;;5076936;28;20024;-80
2022/12/30 00:11:18;;;;;;;13.88;1.98;;;8.30;99.90;;;;;;5065074;28;20009;-80
2022/12/30 00:34:18;;;;;;;12.55;2.08;;;8.20;99.90;;;;;;5070259;28;20031;-80
2022/12/30 00:36:45;;;;;;;11.52;2.33;;;8.20;99.90;;;;;;5071673;28;20054;-80
2022/12/30 00:39:11;;;;;;;14.73;2.33;;;8.20;99.90;;;;;;5071091;28;20021;-81
2022/12/30 00:44:21;;;;;;;12.38;3.00;;;8.20;99.90;;;;;;5066774;28;20091;-81
2022/12/30 00:46:47;;;;;;;16.35;3.85;;;8.20;99.90;;;;;;5061285;28;20036;-81
2022/12/30 00:57:26;;;;;;;14.98;3.63;;;8.00;99.90;;;;;;5080195;28;20077;-81
2022/12/30 00:59:51;;;;;;;17.30;4.32;;;8.00;99.90;;;;;;5078484;28;20025;-81
2022/12/30 01:02:17;;;;;;;13.10;3.10;;;8.10;99.90;;;;;;5076748;28;20025;-80
2022/12/30 01:04:43;;;;;;;14.20;3.10;;;8.10;99.90;;;;;;5074233;28;20035;-80
2022/12/30 01:07:08;;;;;;;14.38;2.58;;;8.10;99.90;;;;;;5058713;28;20020;-80
2022/12/30 01:09:35;;;;;;;14.02;2.47;;;8.00;99.90;;;;;;5073361;28;20040;-81
2022/12/30 01:12:10;;;;;;;12.55;2.40;;;8.00;99.90;;;;;;5075858;28;20068;-80
2022/12/30 01:14:37;;;;;;;11.52;2.30;;;7.90;99.90;;;;;;5076189;28;20043;-80
2022/12/30 01:17:03;;;;;;;15.68;2.20;;;8.00;99.90;;;;;;5076329;28;20047;-80
2022/12/30 01:19:29;;;;;;;17.92;2.10;;;7.90;99.90;;;;;;5074615;28;20037;-80
2022/12/30 01:21:55;;;;;;;14.13;2.33;;;7.80;99.90;;;;;;5074159;28;20025;-80
2022/12/30 01:24:20;;;;;;;11.73;2.00;;;7.80;99.90;;;;;;5071742;28;20424;-80
2022/12/30 01:26:46;;;;;;;16.08;2.80;;;7.80;99.90;;;;;;5070310;28;20029;-80
2022/12/30 01:29:14;;;;;;;9.73;1.90;;;7.70;99.90;;;;;;5077362;28;20017;-80
2022/12/30 01:31:39;;;;;;;10.20;1.83;;;7.70;99.90;;;;;;5077407;28;20025;-80
2022/12/30 01:34:05;;;;;;;10.05;1.80;;;7.80;99.90;;;;;;5076877;28;20056;-81
2022/12/30 01:36:30;;;;;;;11.25;1.58;;;7.80;99.90;;;;;;5076163;28;20433;-80
2022/12/30 01:38:56;;;;;;;14.93;2.45;;;7.80;99.90;;;;;;5074228;28;20025;-80
2022/12/30 01:41:22;;;;;;;10.40;2.00;;;7.70;99.90;;;;;;5058217;28;20029;-81
2022/12/30 01:43:49;;;;;;;11.15;2.25;;;7.70;99.90;;;;;;5053607;28;20432;-80
2022/12/30 01:46:25;;;;;;;9.00;2.17;;;7.70;99.90;;;;;;5069718;28;20041;-81
2022/12/30 01:48:55;;;;;;;16.20;2.05;;;7.70;99.90;;;;;;5073222;28;20028;-81
2022/12/30 01:51:27;;;;;;;11.48;1.70;;;7.70;99.90;;;;;;5076518;28;20056;-81
2022/12/30 01:53:54;;;;;;;11.05;1.95;;;7.70;99.90;;;;;;5076349;28;20092;-80
2022/12/30 01:56:40;;;;;;;15.57;2.20;;;7.70;99.90;;;;;;5060834;28;20017;-81
2022/12/30 01:59:12;;;;;;;12.23;1.90;;;7.70;99.90;;;;;;5072850;28;20461;-81
2022/12/30 02:01:38;;;;;;;11.82;1.80;;;7.70;99.90;;;;;;5060675;28;20028;-81
2022/12/30 02:04:11;;;;;;;10.73;1.95;;;7.70;99.90;;;;;;5070613;28;20051;-81
2022/12/30 02:06:51;;;;;;;16.15;1.40;;;7.70;99.90;;;;;;5069836;28;20017;-81
2022/12/30 02:09:18;;;;;;;12.20;1.70;;;7.70;99.90;;;;;;5066267;28;20508;-72
2022/12/30 02:11:43;;;;;;;11.20;1.55;;;7.70;99.90;;;;;;5052034;28;20029;-72
2022/12/30 02:14:09;;;;;;;16.67;1.98;;;7.60;99.90;;;;;;5052039;28;20028;-72
2022/12/30 02:16:50;;;;;;;13.73;2.83;;;7.50;99.90;;;;;;5053354;28;20124;-72
2022/12/30 02:19:37;;;;;;;9.52;1.40;;;7.50;99.90;;;;;;5053106;28;20116;-72
2022/12/30 02:22:16;;;;;;;10.80;1.65;;;7.40;99.90;;;;;;5052159;28;20025;-72
2022/12/30 02:25:06;;;;;;;15.20;1.30;;;7.50;99.90;;;;;;5053379;28;20028;-72
2022/12/30 02:28:02;;;;;;;10.88;1.40;;;7.50;99.90;;;;;;5053709;28;20079;-71
2022/12/30 02:30:51;;;;;;;11.50;1.95;;;7.50;99.90;;;;;;5053356;28;20021;-72
2022/12/30 02:33:33;;;;;;;15.63;1.38;;;7.50;99.90;;;;;;5052939;28;20027;-72
2022/12/30 02:36:23;;;;;;;14.70;1.40;;;7.60;99.90;;;;;;5053573;28;20021;-72
2022/12/30 02:39:06;;;;;;;11.27;1.33;;;7.60;99.90;;;;;;5052498;28;20020;-72
2022/12/30 02:44:38;;;;;;;9.63;1.58;;;7.60;99.90;;;;;;5053315;28;20139;-71
2022/12/30 02:47:22;;;;;;;9.15;1.50;;;7.60;99.90;;;;;;5052484;28;20036;-72
2022/12/30 02:52:49;;;;;;;8.63;1.20;;;7.60;99.90;;;;;;5056282;28;20090;-72
2022/12/30 02:55:16;;;;;;;12.75;2.22;;;7.60;99.90;;;;;;5058225;28;20021;-72
2022/12/30 02:57:42;;;;;;;21.88;2.05;;;7.60;99.90;;;;;;5056757;28;20108;-72
2022/12/30 03:06:33;;;;;;;16.15;1.85;;;7.60;99.90;;;;;;5053073;28;20099;-72
2022/12/30 03:09:08;;;;;;;12.45;1.30;;;7.60;99.90;;;;;;5051616;28;20036;-72
2022/12/30 03:12:01;;;;;;;16.63;2.05;;;7.60;99.90;;;;;;5052588;28;20017;-71
2022/12/30 03:14:40;;;;;;;12.88;2.10;;;7.60;99.90;;;;;;5042151;28;20120;-71
2022/12/30 03:17:15;;;;;;;14.73;2.20;;;7.60;99.90;;;;;;5051303;28;20036;-71
2022/12/30 03:19:47;;;;;;;18.58;2.67;;;7.60;99.90;;;;;;5052149;28;20063;-71
2022/12/30 03:27:03;;;;;;;19.23;2.03;;;7.60;99.90;;;;;;5051822;28;20079;-71
2022/12/30 03:27:48;;;;;;;19.55;1.75;;;7.60;99.90;;;;;;5052341;28;20435;-71
2022/12/30 03:30:16;;;;;;;15.35;1.83;;;7.70;99.90;;;;;;5051318;28;20025;-71
2022/12/30 03:32:42;;;;;;;18.63;2.15;;;7.60;99.90;;;;;;5053582;28;20090;-71
2022/12/30 03:35:08;;;;;;;15.95;1.80;;;7.70;99.90;;;;;;5054788;28;20029;-71
2022/12/30 03:37:39;;;;;;;13.90;1.60;;;7.70;99.90;;;;;;5054594;28;20032;-71
2022/12/30 03:40:11;;;;;;;15.63;1.85;;;7.70;99.90;;;;;;5056480;28;20025;-71
2022/12/30 03:42:36;;;;;;;10.27;1.23;;;7.70;99.90;;;;;;5056142;28;20079;-71
2022/12/30 03:45:03;;;;;;;13.02;2.03;;;7.70;99.90;;;;;;5054852;28;20037;-71
2022/12/30 03:47:29;;;;;;;14.85;2.08;;;7.70;99.90;;;;;;5055596;28;20533;-71
2022/12/30 03:49:55;;;;;;;16.92;2.22;;;7.70;99.90;;;;;;5055622;28;20052;-71
2022/12/30 03:52:21;;;;;;;14.85;2.60;;;7.70;99.90;;;;;;5055515;28;20089;-71
2022/12/30 03:54:49;;;;;;;18.27;2.55;;;7.70;99.90;;;;;;5055736;28;20194;-71
2022/12/30 03:57:15;;;;;;;17.80;2.05;;;7.70;99.90;;;;;;5055619;28;20369;-71
2022/12/30 03:59:41;;;;;;;15.65;1.98;;;7.60;99.90;;;;;;5022039;28;20536;-72
2022/12/30 04:02:07;;;;;;;12.48;1.70;;;7.60;99.90;;;;;;5054665;28;20411;-71
2022/12/30 04:04:33;;;;;;;17.73;3.42;;;7.70;99.90;;;;;;5056019;28;20025;-71
2022/12/30 04:06:58;;;;;;;15.63;1.85;;;7.70;99.90;;;;;;5054267;28;20115;-71
2022/12/30 04:09:24;;;;;;;17.92;2.03;;;7.70;99.90;;;;;;5054309;28;20525;-71
2022/12/30 04:11:50;;;;;;;16.45;1.90;;;7.60;99.90;;;;;;5054695;28;20472;-71
2022/12/30 04:14:16;;;;;;;14.25;1.98;;;7.60;99.90;;;;;;5053961;28;20048;-71
2022/12/30 04:16:41;;;;;;;13.35;1.80;;;7.60;99.90;;;;;;5053924;28;20033;-71
2022/12/30 04:19:07;;;;;;;16.20;2.55;;;7.60;99.90;;;;;;5054911;28;20032;-71
2022/12/30 04:21:33;;;;;;;9.52;1.55;;;7.60;99.90;;;;;;5054130;28;20170;-71
2022/12/30 04:23:58;;;;;;;13.80;1.50;;;7.70;99.90;;;;;;5054137;28;20040;-71
2022/12/30 04:26:24;;;;;;;13.50;1.85;;;7.70;99.90;;;;;;5054214;28;20029;-71
2022/12/30 04:28:50;;;;;;;16.83;2.47;;;7.70;99.90;;;;;;5054446;28;20034;-71
2022/12/30 04:31:15;;;;;;;17.15;1.92;;;7.70;99.90;;;;;;5055519;28;20032;-72
2022/12/30 04:33:41;;;;;;;14.82;2.10;;;7.70;99.90;;;;;;5054249;28;20052;-71
2022/12/30 04:36:07;;;;;;;16.13;1.98;;;7.70;99.90;;;;;;5055293;28;20458;-71
2022/12/30 04:38:33;;;;;;;9.50;1.90;;;7.70;99.90;;;;;;5054788;28;20131;-71
2022/12/30 04:41:00;;;;;;;9.60;1.83;;;7.70;99.90;;;;;;5055085;28;20029;-72
2022/12/30 04:43:26;;;;;;;21.77;2.15;;;7.70;99.90;;;;;;5055125;28;20021;-71
2022/12/30 04:45:51;;;;;;;17.85;2.22;;;7.70;99.90;;;;;;5054064;28;20039;-71
2022/12/30 04:48:17;;;;;;;11.63;1.85;;;7.60;99.90;;;;;;5053459;28;20033;-71
2022/12/30 04:50:45;;;;;;;14.57;2.28;;;7.60;99.90;;;;;;5055217;28;20028;-72
2022/12/30 04:53:11;;;;;;;14.60;1.52;;;7.50;99.90;;;;;;5054885;28;20126;-72
2022/12/30 04:55:37;;;;;;;13.32;1.58;;;7.50;99.90;;;;;;5055089;28;20052;-72
2022/12/30 04:58:04;;;;;;;11.40;2.17;;;7.50;99.90;;;;;;5055038;28;20021;-72
2022/12/30 05:00:30;;;;;;;19.42;2.08;;;7.50;99.90;;;;;;5054898;28;20446;-72
2022/12/30 05:02:55;;;;;;;16.70;2.13;;;7.50;99.90;;;;;;5053096;28;20483;-72
2022/12/30 05:05:21;;;;;;;18.17;2.42;;;7.40;99.90;;;;;;5053364;28;20025;-73
2022/12/30 05:07:47;;;;;;;19.23;2.58;;;7.30;99.90;;;;;;5054233;28;20029;-71
2022/12/30 05:10:12;;;;;;;19.92;2.22;;;7.30;99.90;;;;;;5054175;28;20501;-70
2022/12/30 05:12:38;;;;;;;10.02;2.05;;;7.30;99.90;;;;;;5054415;28;20021;-72
2022/12/30 05:15:04;;;;;;;12.77;1.90;;;7.20;99.90;;;;;;5054335;28;20079;-71
2022/12/30 05:17:29;;;;;;;24.58;4.03;;;7.20;99.90;;;;;;5054363;28;20428;-71
2022/12/30 05:19:55;;;;;;;18.80;2.58;;;7.10;99.90;;;;;;5053665;28;20045;-71
2022/12/30 05:22:21;;;;;;;14.20;1.83;;;7.00;99.90;;;;;;5054695;28;20477;-71
2022/12/30 05:27:31;;;;;;;13.70;1.80;;;6.90;99.90;;;;;;5054083;28;20106;-71
2022/12/30 05:29:56;;;;;;;18.33;2.47;;;6.90;99.90;;;;;;5052402;28;20453;-71
2022/12/30 05:32:22;;;;;;;14.85;2.50;;;6.90;99.90;;;;;;5052616;28;20021;-71
2022/12/30 05:34:48;;;;;;;19.50;2.13;;;6.90;99.90;;;;;;5052788;28;20119;-71
2022/12/30 05:37:13;;;;;;;17.88;2.13;;;6.90;99.90;;;;;;5052707;28;20051;-71
2022/12/30 05:39:39;;;;;;;13.30;1.77;;;6.90;99.90;;;;;;5054063;28;20029;-71
2022/12/30 05:42:05;;;;;;;19.73;2.42;;;6.90;99.90;;;;;;5053950;28;20031;-71
2022/12/30 05:44:31;;;;;;;16.88;2.10;;;6.90;99.90;;;;;;5053989;28;20017;-71
2022/12/30 05:46:57;;;;;;;15.10;1.75;;;6.90;99.90;;;;;;5052952;28;20112;-72
2022/12/30 05:49:23;;;;;;;18.73;2.15;;;6.90;99.90;;;;;;5053799;28;20025;-71
2022/12/30 05:51:48;;;;;;;16.98;1.77;;;6.90;99.90;;;;;;5053343;28;20027;-71
2022/12/30 05:54:14;;;;;;;17.30;1.88;;;6.90;99.90;;;;;;5053549;28;20104;-71
2022/12/30 05:56:40;;;;;;;15.52;2.15;;;7.00;99.90;;;;;;5053378;28;20025;-71
2022/12/30 05:59:09;;;;;;;19.02;2.58;;;6.90;99.90;;;;;;5053153;28;20067;-71
2022/12/30 06:01:35;;;;;;;15.27;1.90;;;6.90;99.90;;;;;;5052043;28;20422;-71
2022/12/30 06:04:00;;;;;;;22.95;2.22;;;6.90;99.90;;;;;;5052358;28;20147;-71
2022/12/30 06:06:26;;;;;;;15.07;1.98;;;6.90;99.90;;;;;;5035556;28;20025;-71
2022/12/30 06:08:52;;;;;;;15.25;2.50;;;6.90;99.90;;;;;;5052051;28;20099;-71
2022/12/30 06:11:17;;;;;;;18.52;2.25;;;6.90;99.90;;;;;;5053128;28;20037;-71
2022/12/30 06:13:43;;;;;;;16.98;1.88;;;6.90;99.90;;;;;;5053639;28;20499;-72
2022/12/30 06:16:09;;;;;;;19.58;2.33;;;6.80;99.90;;;;;;5053730;28;20426;-71
2022/12/30 06:18:35;;;;;;;18.30;2.58;;;6.90;99.90;;;;;;5052974;28;20364;-71
2022/12/30 06:21:00;;;;;;;17.88;2.67;;;6.80;99.90;;;;;;5053667;28;20460;-71
2022/12/30 06:23:26;;;;;;;15.68;2.72;;;6.80;99.90;;;;;;5035543;28;20025;-71
2022/12/30 06:25:56;;;;;;;14.30;2.30;;;6.80;99.90;;;;;;5052612;28;20445;-71
2022/12/30 06:28:23;;;;;;;20.63;2.90;;;6.80;99.90;;;;;;5053177;28;20107;-71
2022/12/30 06:30:49;;;;;;;22.23;2.08;;;6.80;99.90;;;;;;5052710;28;20472;-71
2022/12/30 06:33:16;;;;;;;16.55;2.40;;;6.80;99.90;;;;;;5051514;28;20121;-71
2022/12/30 06:35:42;;;;;;;10.68;2.08;;;6.80;99.90;;;;;;5051650;28;20098;-71
2022/12/30 06:38:08;;;;;;;15.32;2.38;;;6.80;99.90;;;;;;5051431;28;20021;-71
2022/12/30 06:40:34;;;;;;;18.17;3.00;;;6.80;99.90;;;;;;5052735;28;20021;-71
2022/12/30 06:43:00;;;;;;;16.67;2.13;;;6.80;99.90;;;;;;5052529;28;20018;-71
2022/12/30 06:45:26;;;;;;;24.27;2.95;;;6.80;99.90;;;;;;5052574;28;20040;-71
2022/12/30 06:47:52;;;;;;;14.32;2.00;;;6.80;99.90;;;;;;5051220;28;20102;-71
2022/12/30 06:50:17;;;;;;;21.92;2.88;;;6.80;99.90;;;;;;5051283;28;20136;-71
2022/12/30 06:52:43;;;;;;;19.50;3.67;;;6.80;99.90;;;;;;5051420;28;20032;-71
2022/12/30 06:55:09;;;;;;;14.05;2.00;;;6.80;99.90;;;;;;5052420;28;20468;-71
2022/12/30 06:57:34;;;;;;;18.35;2.47;;;6.80;99.90;;;;;;5051621;28;20048;-71
2022/12/30 07:00:01;;;;;;;17.08;2.22;;;6.70;99.90;;;;;;5034732;28;20107;-71
2022/12/30 07:02:27;;;;;;;9.85;2.10;;;6.80;99.90;;;;;;5052443;28;20071;-70
2022/12/30 07:04:52;;;;;;;19.98;2.67;;;6.70;99.90;;;;;;5051098;28;20065;-72
2022/12/30 07:07:18;;;;;;;17.77;2.08;;;6.70;99.90;;;;;;5051139;28;20036;-71
2022/12/30 07:09:44;;;;;;;17.35;2.47;;;6.70;99.90;;;;;;5056218;28;20028;-71
2022/12/30 07:12:10;;;;;;;21.10;2.58;;;6.70;99.90;;;;;;5055124;28;20369;-71
2022/12/30 07:14:35;;;;;;;12.85;2.35;;;6.70;99.90;;;;;;5055181;28;20183;-71
2022/12/30 07:17:01;;;;;;;15.90;2.03;;;6.70;99.90;;;;;;5022126;28;20025;-71
2022/12/30 07:19:27;;;;;;;18.00;2.20;;;6.70;99.90;;;;;;5021771;28;20048;-70
2022/12/30 07:21:53;;;;;;;17.98;2.92;;;6.70;99.90;;;;;;5039132;28;20107;-71
2022/12/30 07:24:19;;;;;;;17.10;3.17;;;6.70;99.90;;;;;;5056267;28;20159;-70
2022/12/30 07:26:45;;;;;;;19.05;2.85;;;6.70;99.90;;;;;;5038287;28;20029;-72
2022/12/30 07:29:12;;;;;;;15.77;3.40;;;6.70;99.90;;;;;;5056393;28;20048;-71
2022/12/30 07:31:39;;;;;;;20.05;2.42;;;6.70;99.90;;;;;;5054663;28;20454;-71
2022/12/30 07:34:05;;;;;;;16.58;2.80;;;6.70;99.90;;;;;;5055564;28;20029;-71
2022/12/30 07:36:31;;;;;;;16.77;2.42;;;6.70;99.90;;;;;;5055169;28;20048;-71
2022/12/30 07:39:00;;;;;;;11.20;2.15;;;6.70;99.90;;;;;;5054830;28;20430;-71
2022/12/30 07:41:26;;;;;;;15.48;3.65;;;6.70;99.90;;;;;;5054731;28;20071;-72
2022/12/30 07:43:52;;;;;;;16.50;2.33;;;6.70;99.90;;;;;;5054578;28;20063;-73
2022/12/30 07:46:19;;;;;;;14.77;3.33;;;6.80;99.90;;;;;;5038708;28;20087;-73
2022/12/30 07:48:44;;;;;;;16.85;3.38;;;6.80;99.90;;;;;;5054532;28;20017;-73
2022/12/30 07:51:14;;;;;;;21.33;2.00;;;6.90;99.90;;;;;;5038081;28;20025;-73
2022/12/30 07:53:41;;;;;;;16.15;2.97;;;6.80;99.90;;;;;;5055653;28;20033;-73
2022/12/30 07:56:09;;;;;;;17.75;2.75;;;6.80;99.90;;;;;;5054571;28;20120;-73
2022/12/30 07:58:35;;;;;;;15.95;2.30;;;6.80;99.90;;;;;;5055567;28;20090;-73
2022/12/30 08:01:05;;;;;;;14.02;2.30;;;6.90;99.90;;;;;;5039257;28;20391;-73
2022/12/30 08:03:31;;;;;;;14.23;2.38;;;6.90;99.90;;;;;;5054456;28;20025;-73
2022/12/30 08:06:02;;;;;;;14.73;1.98;;;6.90;99.90;;;;;;5054301;28;20032;-72
2022/12/30 08:08:27;;;;;;;10.13;1.67;;;6.90;99.90;;;;;;5055118;28;20028;-73
2022/12/30 08:10:57;;;;;;;13.88;1.60;;;7.00;99.90;;;;;;5054311;28;20025;-78
2022/12/30 08:13:23;;;;;;;13.68;1.98;;;7.00;99.90;;;;;;5054613;28;20453;-78
2022/12/30 08:15:49;;;;;;;13.05;2.13;;;7.10;99.90;;;;;;5037780;28;20035;-78
2022/12/30 08:18:15;;;;;;;11.70;1.70;;;7.00;99.90;;;;;;5037428;28;20327;-79
2022/12/30 08:20:40;;;;;;;8.43;1.85;;;7.00;99.90;;;;;;5019925;28;20072;-78
2022/12/30 08:23:06;;;;;;;20.38;8.52;;;7.10;99.90;;;;;;5021004;28;20475;-78
2022/12/30 08:25:33;;;;;;;17.48;3.85;;;7.10;99.90;;;;;;5054239;28;20048;-79
2022/12/30 08:27:59;;;;;;;11.80;1.88;;;7.10;99.90;;;;;;5055276;28;20102;-74
2022/12/30 08:30:25;;;;;;;7.38;1.45;;;7.20;99.90;;;;;;5053747;28;20021;-78
2022/12/30 08:32:51;;;;;;;16.95;1.50;;;7.10;99.90;;;;;;5037493;28;20457;-78
2022/12/30 08:35:16;;;;;;;13.35;2.17;;;7.20;99.90;;;;;;5037609;28;20041;-78
2022/12/30 08:37:42;;;;;;;10.90;2.47;;;7.20;99.90;;;;;;5037038;28;20037;-79
2022/12/30 08:40:09;;;;;;;9.50;2.25;;;7.20;99.90;;;;;;5037281;28;20040;-78
2022/12/30 08:42:35;;;;;;;12.15;2.35;;;7.30;99.90;;;;;;5053620;28;20029;-79
2022/12/30 08:45:01;;;;;;;13.25;1.52;;;7.30;99.90;;;;;;5053734;28;20033;-79
2022/12/30 08:47:27;;;;;;;7.60;1.50;;;7.30;99.90;;;;;;5055001;28;20105;-80
2022/12/30 08:49:52;;;;;;;9.02;1.48;;;7.30;99.90;;;;;;5054025;28;20048;-79
2022/12/30 08:52:18;;;;;;;9.15;1.58;;;7.30;99.90;;;;;;5037761;28;20064;-80
2022/12/30 08:54:44;;;;;;;9.85;1.35;;;7.40;99.90;;;;;;5053940;28;20466;-78
2022/12/30 08:57:11;;;;;;;13.40;1.50;;;7.40;99.90;;;;;;5037306;28;20029;-79
2022/12/30 08:59:37;;;;;;;9.90;1.45;;;7.40;99.90;;;;;;5054082;28;20437;-77
2022/12/30 09:02:03;;;;;;;7.90;1.20;;;7.40;99.90;;;;;;5054950;28;20108;-78
2022/12/30 09:04:29;;;;;;;10.68;1.33;;;7.50;99.90;;;;;;5054113;28;20532;-77
2022/12/30 09:06:54;;;;;;;7.63;1.10;;;7.50;99.90;;;;;;5036404;28;20029;-77
2022/12/30 09:09:20;;;;;;;7.32;0.80;;;7.60;99.90;;;;;;5053452;28;20119;-78
2022/12/30 09:11:46;;;;;;;10.45;1.15;;;7.60;99.90;;;;;;5053370;28;20381;-77
2022/12/30 09:14:13;;;;;;;7.22;0.95;;;7.60;99.90;;;;;;5053380;28;20060;-78
2022/12/30 09:16:39;;;;;;;7.38;1.00;;;7.60;99.90;;;;;;5052483;28;20024;-79
2022/12/30 09:19:04;;;;;;;12.15;1.55;;;7.70;99.90;;;;;;5052927;28;20025;-78
2022/12/30 09:21:30;;;;;;;8.32;1.58;;;7.70;99.90;;;;;;5054480;28;20377;-79
2022/12/30 09:23:56;;;;;;;7.90;0.98;;;7.70;99.90;;;;;;5053912;28;20025;-79
2022/12/30 09:26:24;;;;;;;7.60;1.30;;;7.70;99.90;;;;;;5052508;28;20040;-73
2022/12/30 09:28:50;;;;;;;7.75;0.95;;;7.70;99.90;;;;;;5053416;28;20484;-73
2022/12/30 09:31:16;;;;;;;5.80;1.05;;;7.80;99.90;;;;;;5053234;28;20033;-74
2022/12/30 09:33:42;;;;;;;9.15;1.00;;;7.80;99.90;;;;;;5052755;28;20107;-79
2022/12/30 09:36:08;;;;;;;10.63;0.90;;;7.80;99.90;;;;;;5052452;28;20061;-79
2022/12/30 09:38:34;;;;;;;7.72;1.00;;;7.90;99.90;;;;;;5036053;28;20031;-79
2022/12/30 09:41:18;;;;;;;7.53;1.48;;;7.90;99.90;;;;;;5052861;28;20480;-79
2022/12/30 09:44:00;;;;;;;7.60;1.30;;;7.90;99.90;;;;;;5054550;28;20029;-78
2022/12/30 09:46:51;;;;;;;12.85;1.92;;;8.00;99.90;;;;;;5055278;28;20036;-78
2022/12/30 09:49:26;;;;;;;11.90;1.23;;;8.00;99.90;;;;;;5053770;28;20032;-78
2022/12/30 09:52:14;;;;;;;6.40;0.95;;;8.00;99.90;;;;;;5053472;28;20025;-77
2022/12/30 09:54:44;;;;;;;10.82;1.40;;;8.00;99.90;;;;;;5037949;28;20144;-78
2022/12/30 09:57:30;;;;;;;7.18;0.93;;;8.00;99.90;;;;;;5036623;28;20107;-73
2022/12/30 10:00:19;;;;;;;8.20;1.85;;;8.10;99.90;;;;;;5052255;28;20025;-73
2022/12/30 10:03:06;;;;;;;5.72;1.10;;;8.10;99.90;;;;;;5052887;28;20029;-73
2022/12/30 10:05:56;;;;;;;5.82;0.95;;;8.10;99.90;;;;;;5051787;28;20119;-74
2022/12/30 10:09:10;;;;;;;7.45;1.30;;;8.10;99.90;;;;;;5052407;28;20033;-73
2022/12/30 10:12:12;;;;;;;7.07;0.85;;;8.20;99.90;;;;;;5053218;28;20024;-73
2022/12/30 10:14:56;;;;;;;9.93;1.00;;;8.30;99.90;;;;;;5051894;28;20036;-72
2022/12/30 10:17:28;;;;;;;8.23;0.77;;;8.30;99.90;;;;;;5051449;28;20031;-73
2022/12/30 10:20:31;;;;;;;4.78;0.95;;;8.30;99.90;;;;;;5053101;28;20128;-73
2022/12/30 10:23:24;;;;;;;11.07;1.88;;;8.30;99.90;;;;;;5053426;28;20163;-73
2022/12/30 10:26:00;;;;;;;6.72;1.20;;;8.30;99.90;;;;;;5053156;28;20067;-73
2022/12/30 10:28:45;;;;;;;9.38;1.20;;;8.30;99.90;;;;;;5051583;28;20032;-73
2022/12/30 10:31:20;;;;;;;3.22;0.70;;;8.30;99.90;;;;;;5052168;28;20083;-74
2022/12/30 10:33:52;;;;;;;6.93;0.70;;;8.30;99.90;;;;;;5052992;28;20070;-73
2022/12/30 10:36:24;;;;;;;3.38;0.65;;;8.40;99.90;;;;;;5052895;28;20032;-74
2022/12/30 10:38:58;;;;;;;8.05;1.42;;;8.40;99.90;;;;;;5053462;28;20036;-73
2022/12/30 10:41:53;;;;;;;7.95;1.30;;;8.40;99.90;;;;;;5052903;28;20112;-73
2022/12/30 10:44:29;;;;;;;7.72;1.20;;;8.30;99.90;;;;;;5052209;28;20030;-73
2022/12/30 10:47:32;;;;;;;7.90;1.10;;;8.30;99.90;;;;;;5052795;28;20037;-74
2022/12/30 10:50:28;;;;;;;14.60;1.38;;;8.30;99.90;;;;;;5051280;28;20033;-74
2022/12/30 10:52:53;;;;;;;6.00;1.15;;;8.30;99.90;;;;;;5051244;28;20079;-73
2022/12/30 10:55:24;;;;;;;6.57;0.70;;;8.40;99.90;;;;;;5052116;28;20033;-73
2022/12/30 10:57:55;;;;;;;8.52;1.10;;;8.50;99.90;;;;;;5051094;28;20036;-72
2022/12/30 11:00:22;;;;;;;6.78;0.90;;;8.50;99.90;;;;;;5052304;28;20068;-73
2022/12/30 11:03:01;;;;;;;9.13;0.88;;;8.50;99.90;;;;;;5035751;28;20067;-73
2022/12/30 11:05:32;;;;;;;5.15;0.93;;;8.50;99.90;;;;;;5052163;28;20037;-73
2022/12/30 11:07:59;;;;;;;4.35;0.80;;;8.40;99.90;;;;;;5051505;28;20033;-72
2022/12/30 11:10:26;;;;;;;6.78;1.00;;;8.50;99.90;;;;;;5050893;28;20100;-73
2022/12/30 11:15:52;;;;;;;9.38;0.82;;;8.50;99.90;;;;;;5052749;28;20439;-73
2022/12/30 11:18:20;;;;;;;5.43;0.70;;;8.50;99.90;;;;;;5052270;28;20441;-71
2022/12/30 11:20:52;;;;;;;7.82;0.80;;;8.50;99.90;;;;;;5039130;28;20457;-72
2022/12/30 11:23:29;;;;;;;8.35;0.85;;;8.50;99.90;;;;;;5065564;28;20017;-72
2022/12/30 11:25:57;;;;;;;5.68;0.60;;;8.50;99.90;;;;;;5060362;28;20024;-76
2022/12/30 11:28:36;;;;;;;4.38;0.63;;;8.50;99.90;;;;;;5058388;28;20032;-78
2022/12/30 11:31:12;;;;;;;4.40;0.43;;;8.50;99.90;;;;;;5055072;28;20025;-77
2022/12/30 11:33:53;;;;;;;7.00;1.05;;;8.60;99.90;;;;;;5052119;28;20033;-79
2022/12/30 11:36:31;;;;;;;7.65;0.80;;;8.60;99.90;;;;;;5052621;28;20052;-77
2022/12/30 11:39:10;;;;;;;11.95;1.30;;;8.60;99.90;;;;;;5052926;28;20107;-76
2022/12/30 11:41:51;;;;;;;5.97;0.68;;;8.60;99.90;;;;;;5052303;28;20028;-75
2022/12/30 11:44:25;;;;;;;4.80;0.50;;;8.60;99.90;;;;;;5050851;28;20061;-77
2022/12/30 11:46:54;;;;;;;8.57;0.73;;;8.60;99.90;;;;;;5052479;28;20394;-76
2022/12/30 11:49:34;;;;;;;9.07;1.00;;;8.60;99.90;;;;;;5052279;28;20109;-77
2022/12/30 11:52:03;;;;;;;6.60;0.88;;;8.60;99.90;;;;;;5051110;28;20504;-77
2022/12/30 11:54:41;;;;;;;8.00;0.75;;;8.60;99.90;;;;;;5052699;28;20029;-74
2022/12/30 11:57:22;;;;;;;6.38;0.70;;;8.60;99.90;;;;;;5055477;28;20029;-73
2022/12/30 11:59:52;;;;;;;6.22;0.90;;;8.60;99.90;;;;;;5055568;28;20025;-74
2022/12/30 12:02:25;;;;;;;9.18;0.63;;;8.60;99.90;;;;;;5055277;28;20029;-72
2022/12/30 12:04:51;;;;;;;5.80;0.85;;;8.60;99.90;;;;;;5054206;28;20426;-74
2022/12/30 12:07:17;;;;;;;4.50;0.73;;;8.60;99.90;;;;;;5054499;28;20037;-72
2022/12/30 12:10:11;;;;;;;7.57;0.75;;;8.70;99.90;;;;;;5054038;28;20044;-72
2022/12/30 12:12:58;;;;;;;6.38;0.88;;;8.60;99.90;;;;;;5049185;28;20079;-72
2022/12/30 12:15:46;;;;;;;6.57;0.77;;;8.60;99.90;;;;;;5056051;28;20029;-72
2022/12/30 12:18:17;;;;;;;2.92;0.35;;;8.70;99.90;;;;;;5055611;28;20032;-72
2022/12/30 12:21:06;;;;;;;4.75;0.65;;;8.70;99.90;;;;;;5053654;28;20056;-71
2022/12/30 12:23:37;;;;;;;5.95;0.65;;;8.70;99.90;;;;;;5054604;28;20124;-71
2022/12/30 12:26:09;;;;;;;5.30;0.52;;;8.70;99.90;;;;;;5054177;28;20541;-72
2022/12/30 12:28:39;;;;;;;6.55;0.80;;;8.80;99.90;;;;;;5054173;28;20025;-72
2022/12/30 12:31:13;;;;;;;6.80;0.90;;;8.70;99.90;;;;;;5054807;28;20029;-72
2022/12/30 12:33:58;;;;;;;5.78;0.77;;;8.80;99.90;;;;;;5053667;28;20048;-72
2022/12/30 12:36:38;;;;;;;5.78;0.85;;;8.80;99.90;;;;;;5054768;28;20036;-74
2022/12/30 12:39:11;;;;;;;4.57;0.50;;;8.80;99.90;;;;;;5054012;28;20017;-75
2022/12/30 12:42:08;;;;;;;3.60;0.50;;;8.80;99.90;;;;;;5054230;28;20477;-77
2022/12/30 12:45:08;;;;;;;6.00;0.50;;;8.90;99.90;;;;;;5054674;28;20118;-76
2022/12/30 12:48:10;;;;;;;8.70;0.70;;;8.90;99.90;;;;;;5055889;28;20036;-77
2022/12/30 12:51:01;;;;;;;5.72;0.55;;;8.90;99.90;;;;;;5022422;28;20484;-76
2022/12/30 12:53:36;;;;;;;4.45;0.63;;;8.90;99.90;;;;;;5054911;28;20029;-76
2022/12/30 12:56:16;;;;;;;6.55;0.65;;;8.90;99.90;;;;;;5053414;28;20040;-76
2022/12/30 12:58:59;;;;;;;8.68;1.15;;;9.00;99.90;;;;;;5054698;28;20082;-76
2022/12/30 13:02:02;;;;;;;9.33;0.70;;;8.90;99.90;;;;;;5053787;28;20025;-76
2022/12/30 13:05:07;;;;;;;8.57;1.23;;;8.90;99.90;;;;;;5053682;28;20119;-76
2022/12/30 13:07:38;;;;;;;6.22;0.65;;;8.90;99.90;;;;;;5055987;28;20040;-75
2022/12/30 13:10:07;;;;;;;9.27;0.65;;;8.90;99.90;;;;;;5054441;28;20029;-76
2022/12/30 13:12:56;;;;;;;9.65;0.90;;;8.90;99.90;;;;;;5053227;28;20029;-76
2022/12/30 13:15:39;;;;;;;7.43;0.90;;;8.90;99.90;;;;;;5045939;28;20120;-76
2022/12/30 13:18:16;;;;;;;8.73;0.98;;;8.80;99.90;;;;;;5052608;28;20029;-76
2022/12/30 13:20:52;;;;;;;5.90;0.73;;;8.80;99.90;;;;;;5052204;28;20076;-77
2022/12/30 13:23:21;;;;;;;8.68;0.98;;;8.80;99.90;;;;;;5052598;28;20025;-74
2022/12/30 13:26:00;;;;;;;9.00;0.95;;;8.80;99.90;;;;;;5052159;28;20069;-77
2022/12/30 13:28:28;;;;;;;8.85;0.80;;;8.80;99.90;;;;;;5052482;28;20037;-77
2022/12/30 13:31:03;;;;;;;5.65;0.70;;;8.80;99.90;;;;;;5053709;28;20108;-77
2022/12/30 13:33:41;;;;;;;7.55;0.80;;;8.80;99.90;;;;;;5052486;28;20036;-77
2022/12/30 13:36:19;;;;;;;11.38;0.90;;;8.80;99.90;;;;;;5053166;28;20466;-77
2022/12/30 13:39:04;;;;;;;7.95;0.80;;;8.80;99.90;;;;;;5052571;28;20047;-76
2022/12/30 13:41:51;;;;;;;7.32;1.10;;;8.80;99.90;;;;;;5052997;28;20025;-78
2022/12/30 13:44:19;;;;;;;5.07;0.95;;;8.80;99.90;;;;;;5053978;28;20040;-76
2022/12/30 13:46:54;;;;;;;8.73;1.25;;;8.80;99.90;;;;;;5053221;28;20446;-77
2022/12/30 13:49:26;;;;;;;6.57;0.77;;;8.80;99.90;;;;;;5052080;28;20039;-77
2022/12/30 13:52:13;;;;;;;5.72;0.70;;;8.80;99.90;;;;;;5053115;28;20108;-77
2022/12/30 13:54:48;;;;;;;9.00;0.90;;;8.80;99.90;;;;;;5053844;28;20132;-77
2022/12/30 13:57:27;;;;;;;7.68;0.90;;;8.70;99.90;;;;;;5052390;28;20033;-79
2022/12/30 14:00:18;;;;;;;10.20;1.05;;;8.70;99.90;;;;;;5053537;28;20028;-78
2022/12/30 14:02:56;;;;;;;4.53;0.80;;;8.70;99.90;;;;;;5052070;28;20425;-78
2022/12/30 14:05:37;;;;;;;5.72;0.80;;;8.80;99.90;;;;;;5053013;28;20056;-78